Aérodrome :
LOGIN :

S'inscrire | Disclaimer

   EN    FR    IT 

 










Légende :    VFR   VFR Marginal   IFR   IFR Intensif   IFR Très Intensif
Visi : 
Plafond : 
>= 8 km
>= 3000ft
5 à 8 km
1000 à 3000 ft
1500m à 5 km
500 à 1000 ft
800 à 1500m
200 à 500 ft
< 800m
< 200 ft
Symboles :   Orages  Brouillard  Fortes neiges  Fortes précipitations  Vent > 20 kt
SIGMETs :   Divers  Orages  Givrage  Turbulence  Onde Orograph.  Cendres Volcan.







- Altitude de l'aérodrome : 17 ft
- Code IATA : MPL
- Voir les cartes d'approche


LFMT - Montpellier Méditerranée

DERNIER METAR :
  • 262200Z AUTO VRB02KT CAVOK 18/15 Q1017 NOSIG

METARs EXPIRÉS :
  • 262130Z AUTO VRB03KT CAVOK 18/15 Q1017 NOSIG
  • 262100Z AUTO VRB02KT CAVOK 19/16 Q1017 NOSIG
  • 262030Z AUTO 30003KT 260V340 CAVOK 19/16 Q1017 NOSIG
  • 262000Z AUTO 26005KT CAVOK 19/16 Q1017 TEMPO 3000 BR BKN005
  • 261930Z AUTO 23005KT CAVOK 20/16 Q1017 TEMPO 3000 BR BKN005

TAF TAF LFMT
Valide du 26 à 21h jusqu'au 27 à 21h UTC


262000Z 2621/2721 26010KT CAVOK
BECMG 2621/2623 VRB02KT
PROB30
TEMPO 2700/2708 3000 BR BKN005
BECMG 2709/2711 18010KT
BECMG 2718/2720 VRB02KT
ATIS : +33 4 67 13 11 70
Pas de NOTAMs connus pour ce terrain.



MET'MAP, la Météo Aéronautique d'un coup d'oeil ! - Copyright ORBIFLY Décembre 2007 - Disclaimer

ORBIFLY MET'MAP TEAM :

Programmation & Développement : Alexandra Zaïnal
Conception & Développement : Baudouin d'Aumeries
Co-Programmation & Développement : Marc-Olivier Méhu
Soutien technique & logistique : Manuel Goepfert

Contact : metmap@orbifly.com




SOURCES & CREDITS :

   NOAA